createdAt,value
2022-08-11T00:01:26.806Z,22.60
2022-08-11T00:03:58.824Z,22.60
2022-08-11T00:06:47.786Z,22.60
2022-08-11T00:09:22.258Z,22.60
2022-08-11T00:11:58.804Z,22.50
2022-08-11T00:14:37.314Z,22.50
2022-08-11T00:17:06.057Z,22.40
2022-08-11T00:20:15.099Z,22.50
2022-08-11T00:22:24.262Z,22.40
2022-08-11T00:24:54.006Z,22.40
2022-08-11T00:27:36.980Z,22.30
2022-08-11T00:30:06.317Z,22.30
2022-08-11T00:32:44.317Z,22.20
2022-08-11T00:35:53.664Z,22.20
2022-08-11T00:38:06.896Z,22.20
2022-08-11T00:40:48.497Z,22.20
2022-08-11T00:43:51.173Z,22.20
2022-08-11T00:46:26.102Z,22.10
2022-08-11T00:49:25.181Z,22.00
2022-08-11T00:52:15.044Z,22.00
2022-08-11T00:54:51.871Z,22.00
2022-08-11T00:57:39.930Z,22.00
2022-08-11T01:00:20.358Z,21.90
2022-08-11T01:03:02.029Z,21.90
2022-08-11T01:06:08.325Z,21.90
2022-08-11T01:09:09.132Z,21.80
2022-08-11T01:12:20.649Z,21.80
2022-08-11T01:15:21.872Z,21.80
2022-08-11T01:18:28.293Z,21.70
2022-08-11T01:21:16.984Z,21.70
2022-08-11T01:23:58.820Z,21.60
2022-08-11T01:26:44.198Z,21.60
2022-08-11T01:29:49.253Z,21.60
2022-08-11T01:32:38.366Z,21.60
2022-08-11T01:35:28.010Z,21.60
2022-08-11T01:38:06.855Z,21.60
2022-08-11T01:40:54.531Z,21.50
2022-08-11T01:43:52.154Z,21.50
2022-08-11T01:46:31.602Z,21.50
2022-08-11T01:50:07.248Z,21.50
2022-08-11T01:52:33.367Z,21.50
2022-08-11T01:55:01.884Z,21.40
2022-08-11T01:57:38.256Z,21.40
2022-08-11T02:00:14.723Z,21.40
2022-08-11T02:03:07.631Z,21.40
2022-08-11T02:06:02.657Z,21.40
2022-08-11T02:08:58.950Z,21.30
2022-08-11T02:11:35.241Z,21.30
2022-08-11T02:14:32.914Z,21.20
2022-08-11T02:17:37.562Z,21.20
2022-08-11T02:20:59.991Z,21.20
2022-08-11T02:24:05.014Z,21.20
2022-08-11T02:26:39.168Z,21.10
2022-08-11T02:29:10.442Z,21.10
2022-08-11T02:32:15.525Z,21.10
2022-08-11T02:35:12.368Z,21.00
2022-08-11T02:38:01.271Z,21.10
2022-08-11T02:40:36.414Z,21.10
2022-08-11T02:43:03.255Z,21.00
2022-08-11T02:45:48.104Z,21.00
2022-08-11T02:48:57.030Z,21.00
2022-08-11T02:51:33.779Z,21.00
2022-08-11T02:54:14.660Z,21.00
2022-08-11T02:57:22.496Z,20.90
2022-08-11T03:00:13.112Z,20.90
2022-08-11T03:03:02.714Z,20.90
2022-08-11T03:06:06.696Z,20.90
2022-08-11T03:09:02.743Z,20.80
2022-08-11T03:12:02.095Z,20.80
2022-08-11T03:15:44.642Z,20.70
2022-08-11T03:18:26.854Z,20.70
2022-08-11T03:21:50.614Z,20.70
2022-08-11T03:24:48.254Z,20.70
2022-08-11T03:27:27.257Z,20.70
2022-08-11T03:30:18.412Z,20.60
2022-08-11T03:33:08.390Z,20.60
2022-08-11T03:35:45.294Z,20.60
2022-08-11T03:38:15.854Z,20.60
2022-08-11T03:41:18.113Z,20.60
2022-08-11T03:44:26.116Z,20.50
2022-08-11T03:47:20.688Z,20.50
2022-08-11T03:50:02.410Z,20.50
2022-08-11T03:52:39.392Z,20.50
2022-08-11T03:55:22.902Z,20.50
2022-08-11T03:58:29.551Z,20.50
2022-08-11T04:01:28.239Z,20.50
2022-08-11T04:04:05.109Z,20.40
2022-08-11T04:07:06.572Z,20.40
2022-08-11T04:09:36.393Z,20.30
2022-08-11T04:17:38.483Z,20.20
2022-08-11T04:20:45.446Z,20.30
2022-08-11T04:24:36.213Z,20.20
2022-08-11T04:26:26.013Z,20.20
2022-08-11T04:28:56.360Z,20.20
2022-08-11T04:31:53.528Z,20.20
2022-08-11T04:34:23.341Z,20.10
2022-08-11T04:37:35.828Z,20.10
2022-08-11T04:40:36.933Z,20.20
2022-08-11T04:43:21.922Z,20.20
2022-08-11T04:46:27.760Z,20.10
2022-08-11T04:49:33.336Z,20.10
2022-08-11T04:52:46.758Z,20.20
2022-08-11T04:55:54.545Z,20.20
2022-08-11T04:59:03.675Z,20.20
2022-08-11T05:01:52.414Z,20.20
2022-08-11T05:05:02.629Z,20.20
2022-08-11T05:07:49.376Z,20.20
2022-08-11T05:10:39.998Z,20.20
2022-08-11T05:13:30.588Z,20.20
2022-08-11T05:16:30.497Z,20.20
2022-08-11T05:19:21.092Z,20.30
2022-08-11T05:22:15.940Z,20.30
2022-08-11T05:25:03.180Z,20.40
2022-08-11T05:28:08.927Z,20.40
2022-08-11T05:31:01.902Z,20.40
2022-08-11T05:34:06.670Z,20.40
2022-08-11T05:36:50.552Z,20.40
2022-08-11T05:39:43.754Z,20.40
2022-08-11T05:42:31.234Z,20.40
2022-08-11T05:46:01.262Z,20.50
2022-08-11T05:48:52.523Z,20.40
2022-08-11T05:51:39.249Z,20.50
2022-08-11T05:54:41.035Z,20.50
2022-08-11T05:57:45.498Z,20.50
2022-08-11T06:00:12.449Z,20.60
2022-08-11T06:02:52.011Z,20.60
2022-08-11T06:05:43.740Z,20.70
2022-08-11T06:08:15.674Z,20.70
2022-08-11T06:10:45.128Z,20.80
2022-08-11T06:13:16.183Z,20.80
2022-08-11T06:15:47.900Z,20.80
2022-08-11T06:18:18.553Z,20.80
2022-08-11T06:21:00.427Z,20.80
2022-08-11T06:23:32.841Z,20.90
2022-08-11T06:26:09.120Z,20.90
2022-08-11T06:28:38.545Z,21.00
2022-08-11T06:31:24.125Z,21.00
2022-08-11T06:33:51.018Z,21.00
2022-08-11T06:36:41.950Z,21.10
2022-08-11T06:39:14.703Z,21.10
2022-08-11T06:42:06.964Z,21.10
2022-08-11T06:44:42.727Z,21.20
2022-08-11T06:47:15.597Z,21.30
2022-08-11T06:50:08.764Z,21.30
2022-08-11T06:52:39.104Z,21.40
2022-08-11T06:55:55.533Z,21.40
2022-08-11T06:58:19.535Z,21.50
2022-08-11T07:00:49.634Z,21.50
2022-08-11T07:03:19.665Z,21.60
2022-08-11T07:06:00.738Z,21.60
2022-08-11T07:09:01.361Z,21.70
2022-08-11T07:12:17.074Z,21.80
2022-08-11T07:15:13.738Z,21.80
2022-08-11T07:18:13.628Z,21.90
2022-08-11T07:21:03.608Z,22.00
2022-08-11T07:23:55.762Z,22.00
2022-08-11T07:26:44.591Z,22.10
2022-08-11T07:29:14.179Z,22.20
2022-08-11T07:31:50.093Z,22.30
2022-08-11T07:34:21.829Z,22.30
2022-08-11T07:36:59.135Z,22.40
2022-08-11T07:39:35.995Z,22.50
2022-08-11T07:42:11.684Z,22.60
2022-08-11T07:44:59.995Z,22.60
2022-08-11T07:47:47.404Z,22.70
2022-08-11T07:50:35.320Z,22.80
2022-08-11T07:53:04.701Z,23.00
2022-08-11T07:55:50.873Z,23.00
2022-08-11T07:58:45.780Z,23.10
2022-08-11T08:01:46.068Z,23.20
2022-08-11T08:04:36.121Z,23.30
2022-08-11T08:07:22.931Z,23.40
2022-08-11T08:10:09.837Z,23.50
2022-08-11T08:13:02.474Z,23.60
2022-08-11T08:15:52.131Z,23.80
2022-08-11T08:18:25.629Z,23.90
2022-08-11T08:20:56.742Z,24.00
2022-08-11T08:23:36.005Z,24.20
2022-08-11T08:26:05.516Z,24.50
2022-08-11T08:28:33.854Z,24.90
2022-08-11T08:31:01.326Z,25.30
2022-08-11T08:33:32.044Z,25.80
2022-08-11T08:36:18.623Z,26.30
2022-08-11T08:38:56.859Z,26.90
2022-08-11T08:41:32.520Z,27.50
2022-08-11T08:44:37.188Z,28.10
2022-08-11T08:47:05.375Z,28.60
2022-08-11T08:49:40.272Z,29.20
2022-08-11T08:52:33.265Z,29.40
2022-08-11T08:55:05.698Z,29.60
2022-08-11T08:57:40.270Z,30.30
2022-08-11T09:00:17.902Z,30.70
2022-08-11T09:02:50.540Z,31.10
2022-08-11T09:05:19.253Z,31.40
2022-08-11T09:07:54.353Z,31.70
2022-08-11T09:10:21.830Z,31.60
2022-08-11T09:12:50.300Z,31.80
2022-08-11T09:15:22.293Z,32.00
2022-08-11T09:18:03.607Z,32.40
2022-08-11T09:20:36.886Z,32.70
2022-08-11T09:26:34.830Z,33.10
2022-08-11T09:29:04.631Z,33.40
2022-08-11T09:31:40.098Z,33.00
2022-08-11T09:34:11.586Z,33.20
2022-08-11T09:37:02.501Z,33.60
2022-08-11T09:39:54.960Z,33.80
2022-08-11T09:42:23.810Z,33.80
2022-08-11T09:44:54.142Z,33.60
2022-08-11T09:47:26.344Z,33.50
2022-08-11T09:50:00.440Z,33.30
2022-08-11T09:52:30.706Z,33.00
2022-08-11T09:54:58.368Z,32.50
2022-08-11T09:57:44.629Z,32.60
2022-08-11T10:00:15.914Z,32.50
2022-08-11T10:02:48.520Z,32.30
2022-08-11T10:05:37.726Z,32.00
2022-08-11T10:08:09.342Z,31.60
2022-08-11T10:10:39.326Z,31.20
2022-08-11T10:13:43.994Z,31.10
2022-08-11T10:16:16.219Z,30.90
2022-08-11T10:18:52.615Z,30.80
2022-08-11T10:21:36.966Z,30.80
2022-08-11T10:27:10.299Z,30.80
2022-08-11T10:30:03.672Z,30.70
2022-08-11T10:32:59.332Z,30.40
2022-08-11T10:35:32.556Z,30.10
2022-08-11T10:38:07.220Z,29.90
2022-08-11T10:40:46.918Z,29.70
2022-08-11T10:44:03.137Z,29.50
2022-08-11T10:46:30.237Z,29.40
2022-08-11T10:48:59.925Z,29.20
2022-08-11T10:51:52.130Z,29.20
2022-08-11T10:54:44.806Z,29.10
2022-08-11T10:57:32.866Z,29.20
2022-08-11T11:00:00.375Z,29.00
2022-08-11T11:02:31.254Z,29.00
2022-08-11T11:05:12.907Z,28.90
2022-08-11T11:08:41.722Z,28.80
2022-08-11T11:11:10.010Z,28.70
2022-08-11T11:14:14.108Z,28.60
2022-08-11T11:16:50.999Z,28.50
2022-08-11T11:19:23.970Z,28.50
2022-08-11T11:21:54.252Z,28.50
2022-08-11T11:24:53.547Z,28.40
2022-08-11T11:27:31.428Z,28.40
2022-08-11T11:30:08.752Z,28.40
2022-08-11T11:32:35.479Z,28.40
2022-08-11T11:35:26.707Z,28.40
2022-08-11T11:38:04.176Z,28.40
2022-08-11T11:40:33.021Z,28.40
2022-08-11T11:43:05.649Z,28.40
2022-08-11T11:45:33.344Z,28.40
2022-08-11T11:48:01.222Z,28.40
2022-08-11T11:50:36.555Z,28.40
2022-08-11T11:53:12.366Z,28.30
2022-08-11T11:55:39.681Z,28.30
2022-08-11T11:58:26.346Z,28.40
2022-08-11T12:01:15.096Z,28.30
2022-08-11T12:03:43.977Z,28.40
2022-08-11T12:06:14.349Z,28.50
2022-08-11T12:08:43.058Z,28.40
2022-08-11T12:11:34.144Z,28.50
2022-08-11T12:14:10.255Z,28.40
2022-08-11T12:16:44.105Z,28.30
2022-08-11T12:19:21.358Z,28.30
2022-08-11T12:22:09.443Z,28.30
2022-08-11T12:24:56.040Z,28.30
2022-08-11T12:27:30.133Z,28.10
2022-08-11T12:30:05.894Z,28.10
2022-08-11T12:32:35.968Z,28.10
2022-08-11T12:35:07.170Z,28.20
2022-08-11T12:37:41.320Z,28.30
2022-08-11T12:40:43.279Z,28.40
2022-08-11T12:43:56.848Z,28.40
2022-08-11T12:46:27.881Z,28.50
2022-08-11T12:49:21.417Z,28.60
2022-08-11T12:52:11.359Z,28.60
2022-08-11T12:54:52.054Z,28.60
2022-08-11T12:58:03.643Z,28.60
2022-08-11T13:00:50.493Z,28.70
2022-08-11T13:03:39.013Z,28.80
2022-08-11T13:06:07.424Z,28.80
2022-08-11T13:08:39.377Z,28.80
2022-08-11T13:11:55.946Z,28.70
2022-08-11T13:14:15.522Z,28.60
2022-08-11T13:17:02.966Z,28.60
2022-08-11T13:19:32.988Z,28.60
2022-08-11T13:22:01.076Z,28.50
2022-08-11T13:24:34.047Z,28.40
2022-08-11T13:27:06.962Z,28.40
2022-08-11T13:29:35.962Z,28.40
2022-08-11T13:32:03.656Z,28.40
2022-08-11T13:34:31.747Z,28.40
2022-08-11T13:37:04.237Z,28.40
2022-08-11T13:39:33.463Z,28.40
2022-08-11T13:42:01.961Z,28.40
2022-08-11T13:44:33.482Z,28.50
2022-08-11T13:47:04.294Z,28.50
2022-08-11T13:49:39.760Z,28.60
2022-08-11T13:52:12.930Z,28.50
2022-08-11T13:54:41.333Z,28.50
2022-08-11T15:30:33.763Z,42.30
2022-08-11T15:33:25.824Z,38.80
2022-08-11T15:36:15.681Z,38.10
2022-08-11T15:38:47.336Z,36.90
2022-08-11T15:41:36.312Z,35.20
2022-08-11T15:45:01.478Z,33.70
2022-08-11T15:47:49.791Z,32.80
2022-08-11T15:50:19.495Z,32.00
2022-08-11T15:53:07.959Z,31.70
2022-08-11T15:55:37.553Z,31.40
2022-08-11T15:58:27.986Z,31.20
2022-08-11T16:01:15.506Z,31.00
2022-08-11T16:04:13.138Z,30.70
2022-08-11T16:06:59.200Z,30.60
2022-08-11T16:10:09.768Z,30.50
2022-08-11T16:12:39.483Z,30.20
2022-08-11T16:15:28.565Z,30.00
2022-08-11T16:18:05.154Z,29.90
2022-08-11T16:20:33.595Z,29.80
2022-08-11T16:23:07.094Z,29.60
2022-08-11T16:27:02.759Z,29.40
2022-08-11T16:28:24.525Z,29.30
2022-08-11T16:30:56.613Z,29.20
2022-08-11T16:33:50.240Z,29.20
2022-08-11T16:36:36.998Z,29.10
2022-08-11T16:39:05.592Z,29.10
2022-08-11T16:41:54.142Z,29.00
2022-08-11T16:44:43.704Z,28.90
2022-08-11T16:47:14.075Z,28.90
2022-08-11T16:49:57.414Z,28.80
2022-08-11T16:52:24.665Z,28.70
2022-08-11T16:54:52.659Z,28.60
2022-08-11T16:57:44.461Z,28.60
2022-08-11T17:00:16.235Z,28.60
2022-08-11T17:03:10.269Z,28.60
2022-08-11T17:06:02.823Z,28.50
2022-08-11T17:08:57.200Z,28.50
2022-08-11T17:11:50.678Z,28.40
2022-08-11T17:14:35.477Z,28.40
2022-08-11T17:17:09.422Z,28.30
2022-08-11T17:20:42.785Z,28.30
2022-08-11T17:22:48.705Z,28.20
2022-08-11T17:25:19.273Z,28.20
2022-08-11T17:27:46.966Z,28.10
2022-08-11T17:30:16.925Z,28.10
2022-08-11T17:33:09.899Z,28.00
2022-08-11T17:35:44.396Z,28.00
2022-08-11T17:38:22.960Z,28.00
2022-08-11T17:41:23.577Z,27.90
2022-08-11T17:44:11.079Z,27.90
2022-08-11T17:47:05.732Z,27.80
2022-08-11T17:49:37.660Z,27.80
2022-08-11T17:52:30.737Z,27.80
2022-08-11T17:55:51.131Z,27.70
2022-08-11T17:58:28.169Z,27.70
2022-08-11T18:00:56.181Z,27.60
2022-08-11T18:03:32.574Z,27.50
2022-08-11T18:06:04.633Z,27.50
2022-08-11T18:08:51.597Z,27.50
2022-08-11T18:12:10.464Z,27.50
2022-08-11T18:14:44.066Z,27.40
2022-08-11T18:17:29.588Z,27.30
2022-08-11T18:20:15.259Z,27.30
2022-08-11T18:23:03.633Z,27.30
2022-08-11T18:25:58.282Z,27.20
2022-08-11T18:28:51.267Z,27.20
2022-08-11T18:31:38.291Z,27.20
2022-08-11T18:34:28.770Z,27.10
2022-08-11T18:37:29.417Z,27.10
2022-08-11T18:40:26.394Z,27.00
2022-08-11T18:43:25.035Z,26.90
2022-08-11T18:46:18.485Z,27.00
2022-08-11T18:49:15.469Z,26.90
2022-08-11T18:52:06.427Z,26.90
2022-08-11T18:54:55.706Z,26.90
2022-08-11T18:57:49.894Z,26.80
2022-08-11T19:00:44.333Z,26.80
2022-08-11T19:03:43.500Z,26.80
2022-08-11T19:06:39.928Z,26.70
2022-08-11T19:09:30.613Z,26.70
2022-08-11T19:12:19.164Z,26.70
2022-08-11T19:15:06.659Z,26.60
2022-08-11T19:17:54.452Z,26.60
2022-08-11T19:20:42.997Z,26.50
2022-08-11T19:23:34.894Z,26.50
2022-08-11T19:26:22.550Z,26.50
2022-08-11T19:29:08.856Z,26.40
2022-08-11T19:32:23.278Z,26.40
2022-08-11T19:35:10.388Z,26.30
2022-08-11T19:37:57.892Z,26.30
2022-08-11T19:40:44.472Z,26.30
2022-08-11T19:43:33.551Z,26.20
2022-08-11T19:46:20.898Z,26.20
2022-08-11T19:49:12.200Z,26.20
2022-08-11T19:51:58.339Z,26.20
2022-08-11T19:54:45.974Z,26.10
2022-08-11T19:57:39.916Z,26.00
2022-08-11T20:00:37.085Z,26.00
2022-08-11T20:03:27.107Z,25.90
2022-08-11T20:06:19.160Z,25.80
2022-08-11T20:09:06.562Z,25.80
2022-08-11T20:11:57.527Z,25.70
2022-08-11T20:14:46.163Z,25.60
2022-08-11T20:17:32.786Z,25.60
2022-08-11T20:20:25.226Z,25.60
2022-08-11T20:23:16.014Z,25.50
2022-08-11T20:26:27.762Z,25.50
2022-08-11T20:29:10.126Z,25.50
2022-08-11T20:31:56.670Z,25.50
2022-08-11T20:34:43.173Z,25.40
2022-08-11T20:37:30.672Z,25.40
2022-08-11T20:40:17.049Z,25.30
2022-08-11T20:43:16.748Z,25.30
2022-08-11T20:46:25.376Z,25.30
2022-08-11T20:49:15.420Z,25.30
2022-08-11T20:52:06.646Z,25.20
2022-08-11T20:54:53.370Z,25.20
2022-08-11T21:00:47.240Z,25.20
2022-08-11T21:03:35.667Z,25.10
2022-08-11T21:06:31.273Z,25.10
2022-08-11T21:10:01.097Z,25.10
2022-08-11T21:12:35.272Z,25.10
2022-08-11T21:15:47.595Z,25.10
2022-08-11T21:18:30.309Z,25.00
2022-08-11T21:21:20.504Z,25.00
2022-08-11T21:24:09.275Z,24.90
2022-08-11T21:27:03.288Z,24.80
2022-08-11T21:29:51.227Z,24.80
2022-08-11T21:32:38.934Z,24.70
2022-08-11T21:35:25.826Z,24.70
2022-08-11T21:38:11.564Z,24.60
2022-08-11T21:40:59.996Z,24.60
2022-08-11T21:43:49.791Z,24.50
2022-08-11T21:46:39.117Z,24.50
2022-08-11T21:49:29.384Z,24.50
2022-08-11T21:52:14.987Z,24.50
2022-08-11T21:55:05.477Z,24.50
2022-08-11T21:57:56.442Z,24.50
2022-08-11T22:00:41.921Z,24.40
2022-08-11T22:03:36.547Z,24.40
2022-08-11T22:06:36.311Z,24.30
2022-08-11T22:09:22.644Z,24.20
2022-08-11T22:12:33.565Z,24.20
2022-08-11T22:15:18.670Z,24.20
2022-08-11T22:18:08.759Z,24.20
2022-08-11T22:20:59.829Z,24.10
2022-08-11T22:23:47.775Z,24.10
2022-08-11T22:26:39.664Z,24.10
2022-08-11T22:29:49.913Z,24.00
2022-08-11T22:32:35.271Z,23.90
2022-08-11T22:35:24.826Z,23.90
2022-08-11T22:38:16.261Z,23.90
2022-08-11T22:41:02.169Z,23.90
2022-08-11T22:43:52.361Z,23.90
2022-08-11T22:46:43.612Z,23.90
2022-08-11T22:49:57.043Z,23.90
2022-08-11T22:52:40.930Z,23.80
2022-08-11T22:55:27.993Z,23.80
2022-08-11T22:58:16.651Z,23.80
2022-08-11T23:01:02.705Z,23.70
2022-08-11T23:03:50.741Z,23.70
2022-08-11T23:06:38.182Z,23.70
2022-08-11T23:09:25.402Z,23.70
2022-08-11T23:12:11.696Z,23.60
2022-08-11T23:15:00.689Z,23.60
2022-08-11T23:17:46.851Z,23.60
2022-08-11T23:20:39.718Z,23.60
2022-08-11T23:23:35.378Z,23.50
2022-08-11T23:26:21.683Z,23.40
2022-08-11T23:29:11.056Z,23.30
2022-08-11T23:31:59.322Z,23.20
2022-08-11T23:35:04.473Z,23.20
2022-08-11T23:38:03.922Z,23.10
2022-08-11T23:40:49.345Z,23.00
2022-08-11T23:43:43.615Z,23.00
2022-08-11T23:46:29.523Z,22.90
2022-08-11T23:49:20.414Z,22.90
2022-08-11T23:52:07.503Z,22.90
2022-08-11T23:54:54.459Z,22.90
2022-08-11T23:57:47.782Z,22.90
